createdAt,value
2017-09-25T00:01:14.248Z,83.50
2017-09-25T00:03:40.958Z,83.50
2017-09-25T00:06:07.737Z,83.40
2017-09-25T00:08:34.443Z,83.30
2017-09-25T00:11:01.981Z,83.60
2017-09-25T00:13:28.552Z,83.50
2017-09-25T00:15:56.004Z,83.80
2017-09-25T00:18:22.887Z,83.80
2017-09-25T00:20:49.735Z,84.00
2017-09-25T00:23:16.360Z,84.00
2017-09-25T00:25:43.879Z,84.00
2017-09-25T00:28:10.500Z,84.00
2017-09-25T00:30:37.776Z,84.10
2017-09-25T00:33:04.556Z,84.10
2017-09-25T00:35:31.899Z,84.20
2017-09-25T00:37:59.405Z,84.20
2017-09-25T00:40:26.351Z,84.10
2017-09-25T00:42:52.935Z,84.30
2017-09-25T00:45:19.620Z,84.40
2017-09-25T00:47:46.252Z,84.40
2017-09-25T00:50:13.004Z,85.00
2017-09-25T00:52:51.720Z,84.50
2017-09-25T00:55:27.461Z,84.50
2017-09-25T00:57:54.103Z,84.70
2017-09-25T01:00:33.741Z,84.80
2017-09-25T01:03:12.424Z,84.80
2017-09-25T01:05:51.216Z,84.80
2017-09-25T01:08:18.006Z,84.80
2017-09-25T01:10:44.683Z,84.90
2017-09-25T01:13:11.556Z,84.80
2017-09-25T01:15:38.490Z,84.70
2017-09-25T01:18:05.222Z,84.70
2017-09-25T01:20:32.019Z,84.50
2017-09-25T01:22:58.803Z,84.60
2017-09-25T01:25:25.541Z,84.50
2017-09-25T01:27:52.284Z,84.70
2017-09-25T01:30:19.845Z,84.60
2017-09-25T01:32:47.340Z,84.70
2017-09-25T01:35:14.861Z,84.60
2017-09-25T01:37:41.823Z,84.60
2017-09-25T01:40:08.509Z,84.70
2017-09-25T01:42:35.926Z,84.60
2017-09-25T01:45:09.550Z,84.60
2017-09-25T01:47:36.267Z,84.50
2017-09-25T01:50:02.945Z,84.70
2017-09-25T01:52:29.604Z,84.70
2017-09-25T01:54:56.439Z,84.70
2017-09-25T01:57:23.017Z,84.80
2017-09-25T01:59:50.397Z,85.00
2017-09-25T02:02:17.007Z,84.90
2017-09-25T02:04:44.665Z,85.00
2017-09-25T02:07:12.283Z,85.10
2017-09-25T02:09:38.957Z,85.00
2017-09-25T02:12:05.464Z,85.20
2017-09-25T02:14:32.088Z,85.10
2017-09-25T02:16:59.673Z,85.20
2017-09-25T02:19:26.312Z,85.00
2017-09-25T02:21:53.460Z,85.10
2017-09-25T02:24:20.089Z,85.30
2017-09-25T02:26:47.544Z,85.20
2017-09-25T02:29:14.318Z,85.20
2017-09-25T02:31:41.002Z,85.30
2017-09-25T02:34:08.420Z,85.30
2017-09-25T02:36:35.061Z,85.30
2017-09-25T02:39:01.786Z,85.20
2017-09-25T02:41:28.629Z,85.30
2017-09-25T02:43:56.011Z,85.40
2017-09-25T02:46:22.748Z,85.30
2017-09-25T02:48:50.210Z,85.50
2017-09-25T02:51:17.634Z,85.80
2017-09-25T02:53:44.988Z,86.00
2017-09-25T02:56:11.637Z,85.90
2017-09-25T02:58:38.374Z,86.20
2017-09-25T03:01:05.772Z,86.20
2017-09-25T03:03:32.375Z,86.10
2017-09-25T03:05:59.001Z,86.50
2017-09-25T03:08:25.734Z,87.20
2017-09-25T03:10:52.442Z,87.30
2017-09-25T03:13:19.287Z,87.60
2017-09-25T03:15:45.845Z,87.80
2017-09-25T03:18:13.385Z,88.00
2017-09-25T03:20:39.984Z,88.00
2017-09-25T03:23:06.769Z,87.90
2017-09-25T03:25:33.403Z,88.50
2017-09-25T03:28:00.488Z,88.80
2017-09-25T03:30:27.795Z,89.50
2017-09-25T03:32:54.532Z,89.30
2017-09-25T03:35:21.144Z,89.30
2017-09-25T03:37:47.673Z,89.50
2017-09-25T03:40:14.162Z,89.90
2017-09-25T03:42:40.795Z,90.10
2017-09-25T03:45:16.216Z,90.70
2017-09-25T03:47:43.796Z,91.00
2017-09-25T03:50:16.499Z,90.70
2017-09-25T03:52:43.036Z,90.70
2017-09-25T03:55:10.327Z,90.70
2017-09-25T03:57:37.068Z,90.60
2017-09-25T04:00:03.809Z,90.70
2017-09-25T04:02:30.584Z,90.60
2017-09-25T04:04:57.231Z,90.70
2017-09-25T04:07:23.896Z,90.60
2017-09-25T04:09:50.539Z,90.60
2017-09-25T04:12:17.288Z,90.50
2017-09-25T04:14:50.692Z,90.50
2017-09-25T04:17:17.433Z,90.40
2017-09-25T04:19:44.183Z,90.40
2017-09-25T04:22:11.535Z,90.30
2017-09-25T04:24:39.332Z,90.40
2017-09-25T04:27:06.068Z,90.30
2017-09-25T04:29:32.856Z,90.30
2017-09-25T04:31:59.589Z,90.30
2017-09-25T04:34:26.095Z,90.30
2017-09-25T04:36:52.759Z,90.30
2017-09-25T04:39:19.420Z,90.20
2017-09-25T04:41:46.027Z,90.20
2017-09-25T04:44:13.589Z,90.30
2017-09-25T04:46:40.266Z,90.30
2017-09-25T04:49:07.587Z,90.40
2017-09-25T04:51:34.351Z,90.40
2017-09-25T04:54:01.015Z,90.40
2017-09-25T04:56:27.722Z,90.40
2017-09-25T04:58:54.463Z,90.40
2017-09-25T05:01:21.994Z,90.30
2017-09-25T05:03:48.603Z,90.40
2017-09-25T05:06:15.418Z,90.30
2017-09-25T05:08:42.028Z,90.40
2017-09-25T05:11:08.774Z,90.40
2017-09-25T05:13:35.492Z,90.40
2017-09-25T05:16:02.196Z,90.40
2017-09-25T05:18:28.865Z,90.30
2017-09-25T05:20:55.465Z,90.30
2017-09-25T05:23:22.252Z,90.20
2017-09-25T05:25:50.205Z,90.20
2017-09-25T05:28:17.567Z,90.20
2017-09-25T05:30:44.187Z,90.20
2017-09-25T05:33:10.960Z,90.10
2017-09-25T05:35:38.158Z,89.80
2017-09-25T05:38:04.854Z,89.10
2017-09-25T05:40:31.635Z,88.70
2017-09-25T05:42:58.549Z,88.60
2017-09-25T05:45:25.231Z,88.50
2017-09-25T05:47:51.917Z,88.40
2017-09-25T05:50:18.548Z,88.20
2017-09-25T05:52:45.343Z,87.80
2017-09-25T05:55:12.165Z,87.50
2017-09-25T05:57:39.945Z,86.10
2017-09-25T06:00:06.555Z,86.10
2017-09-25T06:02:33.347Z,85.90
2017-09-25T06:05:00.948Z,85.40
2017-09-25T06:07:27.760Z,85.40
2017-09-25T06:09:55.439Z,83.90
2017-09-25T06:12:23.000Z,83.70
2017-09-25T06:14:49.715Z,83.70
2017-09-25T06:17:16.590Z,83.60
2017-09-25T06:19:44.231Z,83.70
2017-09-25T06:22:10.987Z,83.70
2017-09-25T06:24:37.855Z,84.00
2017-09-25T06:27:04.667Z,83.70
2017-09-25T06:29:31.477Z,83.00
2017-09-25T06:31:59.085Z,83.10
2017-09-25T06:34:26.135Z,83.70
2017-09-25T06:36:53.045Z,83.00
2017-09-25T06:39:19.959Z,83.10
2017-09-25T06:41:46.560Z,83.10
2017-09-25T06:44:13.175Z,83.50
2017-09-25T06:46:40.808Z,81.70
2017-09-25T06:49:07.559Z,81.70
2017-09-25T06:51:34.332Z,81.30
2017-09-25T06:54:01.813Z,80.80
2017-09-25T06:56:28.712Z,80.80
2017-09-25T06:58:55.325Z,80.60
2017-09-25T07:01:22.114Z,80.10
2017-09-25T07:03:48.711Z,79.80
2017-09-25T07:06:15.784Z,79.50
2017-09-25T07:08:42.365Z,79.50
2017-09-25T07:11:09.168Z,79.50
2017-09-25T07:13:35.880Z,79.50
2017-09-25T07:16:03.680Z,78.90
2017-09-25T07:18:30.415Z,78.90
2017-09-25T07:20:57.059Z,78.80
2017-09-25T07:23:23.819Z,79.00
2017-09-25T07:25:50.734Z,78.50
2017-09-25T07:28:18.221Z,78.20
2017-09-25T07:30:45.924Z,77.00
2017-09-25T07:33:13.030Z,76.90
2017-09-25T07:35:39.868Z,76.80
2017-09-25T07:38:06.611Z,76.60
2017-09-25T07:40:33.300Z,76.60
2017-09-25T07:43:00.001Z,76.30
2017-09-25T07:45:26.700Z,75.80
2017-09-25T07:47:53.655Z,75.40
2017-09-25T07:50:20.429Z,75.10
2017-09-25T07:52:47.310Z,74.70
2017-09-25T07:55:14.189Z,73.80
2017-09-25T07:57:41.028Z,73.60
2017-09-25T08:00:08.349Z,73.50
2017-09-25T08:02:35.232Z,73.50
2017-09-25T08:05:02.004Z,73.60
2017-09-25T08:07:29.673Z,72.90
2017-09-25T08:09:56.483Z,70.60
2017-09-25T08:12:23.326Z,70.90
2017-09-25T08:14:50.088Z,71.20
2017-09-25T08:17:16.928Z,70.20
2017-09-25T08:19:43.662Z,68.70
2017-09-25T08:22:10.637Z,67.60
2017-09-25T08:24:37.327Z,66.80
2017-09-25T08:27:03.963Z,66.40
2017-09-25T08:29:30.952Z,66.20
2017-09-25T08:31:57.839Z,65.90
2017-09-25T08:34:24.543Z,66.10
2017-09-25T08:36:51.223Z,66.20
2017-09-25T08:39:18.034Z,67.10
2017-09-25T08:41:44.660Z,67.10
2017-09-25T08:44:11.279Z,66.20
2017-09-25T08:46:38.068Z,66.00
2017-09-25T08:49:04.916Z,65.50
2017-09-25T08:51:31.547Z,65.90
2017-09-25T08:53:58.259Z,64.90
2017-09-25T08:56:24.885Z,65.10
2017-09-25T08:58:51.632Z,65.80
2017-09-25T09:01:19.107Z,65.90
2017-09-25T09:03:45.908Z,65.90
2017-09-25T09:06:13.490Z,66.60
2017-09-25T09:08:46.387Z,66.60
2017-09-25T09:11:13.047Z,66.40
2017-09-25T09:13:39.831Z,66.50
2017-09-25T09:16:07.520Z,66.60
2017-09-25T09:18:34.157Z,66.50
2017-09-25T09:21:01.577Z,65.30
2017-09-25T09:23:28.390Z,65.20
2017-09-25T09:25:55.090Z,65.20
2017-09-25T09:28:21.916Z,65.40
2017-09-25T09:30:48.809Z,65.50
2017-09-25T09:33:15.663Z,65.10
2017-09-25T09:35:42.656Z,65.20
2017-09-25T09:38:09.306Z,66.00
2017-09-25T09:40:36.135Z,65.70
2017-09-25T09:43:02.959Z,64.70
2017-09-25T09:45:29.808Z,64.50
2017-09-25T09:47:56.646Z,63.80
2017-09-25T09:50:23.469Z,62.40
2017-09-25T09:52:50.391Z,62.00
2017-09-25T09:55:17.258Z,62.40
2017-09-25T09:57:43.743Z,61.70
2017-09-25T10:00:10.654Z,62.10
2017-09-25T10:02:38.071Z,59.40
2017-09-25T10:05:04.756Z,59.30
2017-09-25T10:07:31.440Z,57.20
2017-09-25T10:09:58.279Z,52.50
2017-09-25T10:12:25.060Z,51.70
2017-09-25T10:14:52.635Z,51.10
2017-09-25T10:17:19.458Z,51.00
2017-09-25T10:19:47.014Z,49.10
2017-09-25T10:22:13.830Z,49.10
2017-09-25T10:24:41.173Z,49.20
2017-09-25T10:27:07.776Z,49.10
2017-09-25T10:29:35.372Z,53.30
2017-09-25T10:32:02.447Z,53.20
2017-09-25T10:34:29.010Z,52.80
2017-09-25T10:36:55.873Z,51.70
2017-09-25T10:39:22.507Z,50.90
2017-09-25T10:41:49.180Z,46.60
2017-09-25T10:44:16.628Z,45.30
2017-09-25T10:46:43.352Z,45.30
2017-09-25T10:49:09.973Z,47.30
2017-09-25T10:51:36.691Z,49.30
2017-09-25T10:54:03.537Z,51.00
2017-09-25T10:56:30.124Z,51.90
2017-09-25T10:58:56.832Z,52.50
2017-09-25T11:01:23.602Z,53.20
2017-09-25T11:03:50.445Z,53.80
2017-09-25T11:06:17.507Z,53.30
2017-09-25T11:08:44.200Z,53.80
2017-09-25T11:11:10.959Z,54.20
2017-09-25T11:13:37.662Z,53.60
2017-09-25T11:16:04.349Z,52.80
2017-09-25T11:18:31.091Z,49.40
2017-09-25T11:20:57.867Z,48.00
2017-09-25T11:23:24.569Z,46.90
2017-09-25T11:25:51.355Z,46.50
2017-09-25T11:28:18.092Z,47.90
2017-09-25T11:30:45.630Z,47.80
2017-09-25T11:33:13.312Z,47.50
2017-09-25T11:35:40.285Z,47.50
2017-09-25T11:38:07.071Z,47.60
2017-09-25T11:40:33.915Z,48.50
2017-09-25T11:43:00.642Z,48.70
2017-09-25T11:45:27.200Z,48.90
2017-09-25T11:47:53.921Z,48.30
2017-09-25T11:50:20.641Z,47.10
2017-09-25T11:52:47.325Z,46.50
2017-09-25T11:55:14.020Z,45.30
2017-09-25T11:57:40.920Z,45.00
2017-09-25T12:00:07.646Z,44.70
2017-09-25T12:02:34.419Z,46.00
2017-09-25T12:05:01.040Z,46.00
2017-09-25T12:07:27.824Z,44.40
2017-09-25T12:09:54.630Z,43.80
2017-09-25T12:12:21.667Z,43.60
2017-09-25T12:14:48.636Z,44.00
2017-09-25T12:17:16.079Z,42.90
2017-09-25T12:19:42.887Z,42.90
2017-09-25T12:22:09.592Z,43.60
2017-09-25T12:24:37.071Z,42.70
2017-09-25T12:27:04.547Z,43.00
2017-09-25T12:29:31.246Z,43.00
2017-09-25T12:31:57.994Z,43.60
2017-09-25T12:34:24.971Z,42.40
2017-09-25T12:36:51.836Z,43.20
2017-09-25T12:39:18.567Z,45.00
2017-09-25T12:41:45.221Z,47.10
2017-09-25T12:44:11.769Z,48.80
2017-09-25T12:46:38.462Z,50.70
2017-09-25T12:49:05.956Z,53.50
2017-09-25T12:51:32.729Z,53.40
2017-09-25T12:54:00.109Z,55.60
2017-09-25T12:56:27.010Z,55.50
2017-09-25T12:58:55.064Z,56.30
2017-09-25T13:01:21.684Z,56.80
2017-09-25T13:03:48.311Z,56.90
2017-09-25T13:06:15.961Z,56.80
2017-09-25T13:08:42.739Z,56.70
2017-09-25T13:11:09.416Z,57.00
2017-09-25T13:13:36.115Z,57.50
2017-09-25T13:16:02.933Z,57.80
2017-09-25T13:18:29.783Z,58.10
2017-09-25T13:20:56.460Z,58.30
2017-09-25T13:23:23.048Z,59.00
2017-09-25T13:25:49.877Z,59.70
2017-09-25T13:28:16.338Z,60.40
2017-09-25T13:30:43.012Z,61.00
2017-09-25T13:33:09.657Z,61.20
2017-09-25T13:35:36.757Z,61.40
2017-09-25T13:38:03.492Z,61.80
2017-09-25T13:40:30.106Z,62.20
2017-09-25T13:42:56.820Z,62.50
2017-09-25T13:45:23.404Z,62.60
2017-09-25T13:47:50.062Z,62.70
2017-09-25T13:50:16.894Z,63.00
2017-09-25T13:52:43.670Z,63.40
2017-09-25T13:55:10.601Z,63.40
2017-09-25T13:57:37.392Z,63.80
2017-09-25T14:02:36.761Z,64.10
2017-09-25T14:05:03.356Z,64.40
2017-09-25T14:07:30.173Z,64.30
2017-09-25T14:09:56.763Z,64.50
2017-09-25T14:12:23.450Z,64.20
2017-09-25T14:14:50.362Z,64.30
2017-09-25T14:17:17.083Z,64.90
2017-09-25T14:19:44.603Z,65.40
2017-09-25T14:22:11.415Z,65.40
2017-09-25T14:24:38.380Z,65.50
2017-09-25T14:27:04.958Z,65.00
2017-09-25T14:29:31.661Z,64.70
2017-09-25T14:31:58.311Z,64.70
2017-09-25T14:34:25.045Z,64.80
2017-09-25T14:36:51.733Z,64.60
2017-09-25T14:39:18.292Z,65.10
2017-09-25T14:41:45.005Z,65.10
2017-09-25T14:44:11.654Z,65.30
2017-09-25T14:46:39.103Z,65.50
2017-09-25T14:49:05.736Z,65.50
2017-09-25T14:51:32.440Z,65.80
2017-09-25T14:53:59.067Z,66.10
2017-09-25T14:56:26.673Z,66.20
2017-09-25T14:58:53.430Z,66.20
2017-09-25T15:01:20.278Z,66.20
2017-09-25T15:03:47.034Z,66.20
2017-09-25T15:06:13.972Z,66.00
2017-09-25T15:08:41.399Z,66.00
2017-09-25T15:11:08.287Z,65.90
2017-09-25T15:13:34.898Z,65.80
2017-09-25T15:16:01.677Z,65.70
2017-09-25T15:18:28.209Z,65.90
2017-09-25T15:20:55.052Z,65.30
2017-09-25T15:23:22.004Z,65.50
2017-09-25T15:25:49.637Z,65.80
2017-09-25T15:28:17.027Z,66.40
2017-09-25T15:30:43.761Z,66.40
2017-09-25T15:33:10.492Z,66.90
2017-09-25T15:35:37.344Z,67.10
2017-09-25T15:38:04.368Z,67.60
2017-09-25T15:40:30.893Z,67.60
2017-09-25T15:42:57.682Z,68.00
2017-09-25T15:45:24.311Z,68.50
2017-09-25T15:47:51.009Z,70.10
2017-09-25T15:50:17.605Z,71.40
2017-09-25T15:52:44.095Z,71.90
2017-09-25T15:55:10.739Z,72.50
2017-09-25T15:57:37.275Z,72.70
2017-09-25T16:00:04.006Z,73.10
2017-09-25T16:02:31.252Z,72.60
2017-09-25T16:04:58.096Z,72.70
2017-09-25T16:07:26.089Z,72.70
2017-09-25T16:09:53.193Z,72.10
2017-09-25T16:12:20.065Z,72.20
2017-09-25T16:14:47.651Z,72.00
2017-09-25T16:17:14.400Z,71.90
2017-09-25T16:19:41.150Z,72.10
2017-09-25T16:22:08.137Z,72.40
2017-09-25T16:24:35.716Z,72.20
2017-09-25T16:27:03.357Z,72.70
2017-09-25T16:29:30.352Z,72.30
2017-09-25T16:31:56.942Z,72.50
2017-09-25T16:34:23.673Z,72.70
2017-09-25T16:36:51.436Z,73.20
2017-09-25T16:39:18.451Z,73.20
2017-09-25T16:41:45.289Z,74.00
2017-09-25T16:44:12.038Z,75.00
2017-09-25T16:46:39.693Z,77.90
2017-09-25T16:49:06.474Z,77.90
2017-09-25T16:51:33.188Z,79.50
2017-09-25T16:54:07.455Z,81.20
2017-09-25T16:56:34.675Z,81.00
2017-09-25T16:59:01.496Z,81.60
2017-09-25T17:01:28.232Z,82.10
2017-09-25T17:03:55.617Z,82.40
2017-09-25T17:06:22.324Z,82.30
2017-09-25T17:08:48.902Z,82.70
2017-09-25T17:11:15.614Z,83.10
2017-09-25T17:13:42.156Z,83.60
2017-09-25T17:16:08.916Z,83.90
2017-09-25T17:18:36.503Z,83.70
2017-09-25T17:21:03.333Z,83.70
2017-09-25T17:23:30.173Z,83.50
2017-09-25T17:25:57.626Z,83.50
2017-09-25T17:28:24.141Z,83.40
2017-09-25T17:30:50.947Z,83.30
2017-09-25T17:33:17.823Z,83.30
2017-09-25T17:35:44.518Z,83.40
2017-09-25T17:38:11.392Z,83.60
2017-09-25T17:40:39.303Z,83.70
2017-09-25T17:43:07.029Z,83.80
2017-09-25T17:45:33.940Z,83.80
2017-09-25T17:48:01.598Z,83.70
2017-09-25T17:50:28.528Z,83.70
2017-09-25T17:52:55.304Z,83.60
2017-09-25T17:55:22.103Z,83.80
2017-09-25T17:57:49.125Z,84.20
2017-09-25T18:00:16.905Z,84.20
2017-09-25T18:02:43.874Z,84.30
2017-09-25T18:05:10.743Z,84.10
2017-09-25T18:07:39.660Z,84.20
2017-09-25T18:10:08.189Z,84.30
2017-09-25T18:12:34.884Z,84.30
2017-09-25T18:15:01.778Z,84.10
2017-09-25T18:17:28.509Z,84.20
2017-09-25T18:19:55.173Z,84.10
2017-09-25T18:22:22.835Z,84.10
2017-09-25T18:24:50.592Z,83.70
2017-09-25T18:27:17.404Z,83.70
2017-09-25T18:29:43.984Z,84.00
2017-09-25T18:32:11.761Z,84.00
2017-09-25T18:34:39.372Z,83.60
2017-09-25T18:37:06.198Z,83.60
2017-09-25T18:39:33.269Z,83.80
2017-09-25T18:42:01.377Z,83.80
2017-09-25T18:44:28.631Z,83.70
2017-09-25T18:46:56.116Z,83.60
2017-09-25T18:49:22.862Z,83.50
2017-09-25T18:51:49.878Z,83.40
2017-09-25T18:54:17.029Z,83.40
2017-09-25T18:56:43.776Z,83.20
2017-09-25T18:59:10.829Z,83.10
2017-09-25T19:01:37.621Z,83.00
2017-09-25T19:04:04.613Z,83.10
2017-09-25T19:06:31.441Z,83.20
2017-09-25T19:08:58.239Z,82.90
2017-09-25T19:11:24.956Z,82.70
2017-09-25T19:13:52.790Z,82.80
2017-09-25T19:16:20.229Z,82.60
2017-09-25T19:18:46.947Z,82.90
2017-09-25T19:21:13.997Z,82.90
2017-09-25T19:23:41.097Z,82.90
2017-09-25T19:26:08.398Z,82.90
2017-09-25T19:28:35.006Z,82.60
2017-09-25T19:31:02.783Z,82.60
2017-09-25T19:33:29.563Z,82.60
2017-09-25T19:35:56.438Z,82.70
2017-09-25T19:38:23.337Z,82.50
2017-09-25T19:40:50.071Z,82.50
2017-09-25T19:43:16.838Z,82.40
2017-09-25T19:45:44.302Z,82.30
2017-09-25T19:48:17.024Z,82.50
2017-09-25T19:51:01.228Z,82.50
2017-09-25T19:53:28.309Z,82.40
2017-09-25T19:55:55.124Z,82.60
2017-09-25T19:58:23.430Z,82.40
2017-09-25T20:00:50.427Z,82.40
2017-09-25T20:03:17.219Z,82.60
2017-09-25T20:05:43.979Z,82.10
2017-09-25T20:08:11.169Z,82.20
2017-09-25T20:10:38.033Z,82.40
2017-09-25T20:13:05.025Z,82.30
2017-09-25T20:15:34.542Z,82.30
2017-09-25T20:18:02.518Z,81.90
2017-09-25T20:20:29.310Z,81.80
2017-09-25T20:22:56.023Z,81.80
2017-09-25T20:25:23.013Z,81.80
2017-09-25T20:27:49.711Z,81.90
2017-09-25T20:30:16.520Z,82.10
2017-09-25T20:32:46.880Z,82.20
2017-09-25T20:35:14.360Z,82.00
2017-09-25T20:37:41.436Z,82.00
2017-09-25T20:40:08.288Z,82.00
2017-09-25T20:42:45.983Z,82.20
2017-09-25T20:45:12.853Z,82.40
2017-09-25T20:47:40.440Z,82.70
2017-09-25T20:50:07.997Z,82.90
2017-09-25T20:52:34.524Z,82.90
2017-09-25T20:55:01.295Z,83.00
2017-09-25T20:57:28.293Z,83.10
2017-09-25T20:59:55.217Z,83.50
2017-09-25T21:02:22.123Z,83.60
2017-09-25T21:04:49.127Z,83.80
2017-09-25T21:07:15.909Z,83.90
2017-09-25T21:09:42.785Z,84.00
2017-09-25T21:12:10.334Z,84.30
2017-09-25T21:14:37.176Z,84.10
2017-09-25T21:17:04.703Z,84.80
2017-09-25T21:19:31.697Z,84.60
2017-09-25T21:21:59.245Z,84.90
2017-09-25T21:24:25.837Z,84.90
2017-09-25T21:29:56.000Z,85.00
2017-09-25T21:32:23.006Z,85.00
2017-09-25T21:34:49.843Z,85.00
2017-09-25T21:37:16.472Z,85.00
2017-09-25T21:39:43.907Z,85.50
2017-09-25T21:42:10.463Z,85.50
2017-09-25T21:44:37.270Z,85.70
2017-09-25T21:47:04.368Z,85.60
2017-09-25T21:49:32.020Z,85.80
2017-09-25T21:51:58.595Z,85.70
2017-09-25T21:54:25.359Z,85.90
2017-09-25T21:56:52.864Z,86.10
2017-09-25T21:59:19.474Z,86.00
2017-09-25T22:01:46.423Z,86.00
2017-09-25T22:04:13.315Z,86.10
2017-09-25T22:06:40.056Z,86.10
2017-09-25T22:09:07.193Z,86.10
2017-09-25T22:11:34.102Z,86.10
2017-09-25T22:14:00.715Z,86.00
2017-09-25T22:16:28.465Z,85.90
2017-09-25T22:18:56.037Z,85.90
2017-09-25T22:21:23.186Z,85.80
2017-09-25T22:23:49.920Z,85.70
2017-09-25T22:26:16.571Z,85.80
2017-09-25T22:28:43.487Z,85.70
2017-09-25T22:31:11.528Z,85.70
2017-09-25T22:33:39.002Z,85.70
2017-09-25T22:36:06.140Z,85.70
2017-09-25T22:38:32.811Z,85.60
2017-09-25T22:40:59.721Z,85.50
2017-09-25T22:43:41.303Z,85.30
2017-09-25T22:46:08.130Z,85.40
2017-09-25T22:48:35.449Z,85.50
2017-09-25T22:51:02.279Z,85.50
2017-09-25T22:53:28.950Z,85.60
2017-09-25T22:55:56.372Z,85.50
2017-09-25T22:58:23.265Z,85.50
2017-09-25T23:00:50.020Z,85.30
2017-09-25T23:03:16.925Z,85.30
2017-09-25T23:05:50.554Z,84.70
2017-09-25T23:08:17.180Z,85.30
2017-09-25T23:10:44.433Z,85.00
2017-09-25T23:13:11.492Z,85.60
2017-09-25T23:15:38.026Z,84.80
2017-09-25T23:18:04.768Z,84.70
2017-09-25T23:20:31.568Z,84.90
2017-09-25T23:22:58.496Z,84.90
2017-09-25T23:25:25.119Z,85.00
2017-09-25T23:27:52.028Z,84.90
2017-09-25T23:30:19.768Z,84.90
2017-09-25T23:32:46.456Z,84.80
2017-09-25T23:35:13.234Z,84.70
2017-09-25T23:37:40.914Z,84.70
2017-09-25T23:40:07.727Z,84.80
2017-09-25T23:42:34.313Z,85.00
2017-09-25T23:45:01.010Z,85.00
2017-09-25T23:47:27.706Z,84.90
2017-09-25T23:49:54.965Z,85.00
2017-09-25T23:52:21.624Z,85.00
2017-09-25T23:54:48.509Z,84.90
2017-09-25T23:57:15.267Z,84.90
2017-09-25T23:59:42.555Z,85.00
